createdAt,value
2022-09-16T00:02:27.149Z,7.05
2022-09-16T00:04:59.037Z,6.17
2022-09-16T00:07:32.944Z,7.62
2022-09-16T00:10:06.472Z,7.20
2022-09-16T00:12:38.588Z,6.83
2022-09-16T00:15:11.776Z,6.55
2022-09-16T00:17:43.765Z,7.35
2022-09-16T00:20:15.685Z,8.35
2022-09-16T00:22:47.648Z,7.25
2022-09-16T00:25:19.675Z,6.65
2022-09-16T00:27:51.787Z,8.33
2022-09-16T00:30:23.839Z,7.67
2022-09-16T00:32:56.188Z,6.95
2022-09-16T00:35:28.299Z,7.05
2022-09-16T00:38:00.260Z,6.87
2022-09-16T00:40:32.845Z,7.05
2022-09-16T00:43:04.910Z,6.78
2022-09-16T00:45:36.920Z,6.42
2022-09-16T00:48:12.687Z,7.40
2022-09-16T00:50:51.374Z,6.62
2022-09-16T00:53:26.262Z,6.37
2022-09-16T00:56:01.483Z,6.15
2022-09-16T00:58:45.685Z,5.55
2022-09-16T01:01:17.717Z,6.55
2022-09-16T01:03:52.687Z,6.42
2022-09-16T01:06:27.666Z,6.00
2022-09-16T01:09:00.105Z,6.40
2022-09-16T01:11:32.386Z,6.92
2022-09-16T01:14:23.513Z,6.22
2022-09-16T01:17:01.442Z,6.45
2022-09-16T01:19:36.452Z,5.70
2022-09-16T01:22:29.070Z,6.70
2022-09-16T01:25:19.051Z,6.20
2022-09-16T01:27:59.956Z,6.70
2022-09-16T01:30:56.241Z,6.95
2022-09-16T01:33:33.915Z,7.75
2022-09-16T01:36:08.809Z,6.47
2022-09-16T01:39:01.898Z,6.67
2022-09-16T01:41:54.802Z,6.25
2022-09-16T01:44:47.346Z,6.78
2022-09-16T01:47:41.527Z,6.83
2022-09-16T01:50:47.736Z,6.72
2022-09-16T01:53:25.368Z,6.45
2022-09-16T01:56:02.847Z,6.97
2022-09-16T01:58:57.021Z,6.80
2022-09-16T02:01:34.631Z,8.10
2022-09-16T02:04:15.438Z,8.18
2022-09-16T02:06:49.325Z,6.87
2022-09-16T02:09:24.305Z,7.28
2022-09-16T02:11:59.122Z,6.92
2022-09-16T02:14:33.084Z,7.28
2022-09-16T02:17:10.802Z,7.30
2022-09-16T02:19:48.754Z,7.10
2022-09-16T02:22:26.442Z,6.92
2022-09-16T02:25:01.302Z,7.08
2022-09-16T02:27:35.240Z,7.17
2022-09-16T02:30:10.565Z,7.53
2022-09-16T02:32:45.560Z,6.92
2022-09-16T02:35:20.313Z,7.20
2022-09-16T02:38:04.171Z,6.72
2022-09-16T02:40:42.241Z,7.22
2022-09-16T02:43:14.426Z,7.47
2022-09-16T02:45:55.390Z,7.25
2022-09-16T02:48:36.257Z,7.05
2022-09-16T02:51:27.519Z,6.85
2022-09-16T02:54:02.449Z,7.08
2022-09-16T02:56:37.442Z,7.25
2022-09-16T02:59:12.464Z,6.97
2022-09-16T03:01:47.432Z,6.37
2022-09-16T03:04:21.496Z,6.85
2022-09-16T03:06:53.375Z,6.97
2022-09-16T03:09:26.192Z,6.80
2022-09-16T03:12:25.308Z,7.17
2022-09-16T03:15:24.228Z,6.17
2022-09-16T03:17:59.419Z,7.10
2022-09-16T03:20:43.369Z,7.85
2022-09-16T03:23:45.554Z,6.15
2022-09-16T03:26:23.360Z,8.10
2022-09-16T03:29:18.099Z,6.00
2022-09-16T03:32:21.480Z,6.70
2022-09-16T03:34:59.300Z,6.40
2022-09-16T03:37:35.906Z,6.72
2022-09-16T03:40:11.290Z,6.97
2022-09-16T03:42:44.907Z,5.72
2022-09-16T03:45:22.363Z,6.08
2022-09-16T03:47:55.221Z,6.25
2022-09-16T03:50:27.304Z,6.12
2022-09-16T03:52:59.242Z,6.42
2022-09-16T03:55:31.521Z,5.72
2022-09-16T03:58:03.871Z,5.83
2022-09-16T04:00:37.083Z,6.62
2022-09-16T04:03:09.141Z,5.90
2022-09-16T04:05:41.218Z,6.83
2022-09-16T04:08:13.855Z,5.67
2022-09-16T04:11:00.165Z,6.42
2022-09-16T04:13:34.701Z,6.10
2022-09-16T04:16:07.176Z,8.43
2022-09-16T04:18:39.297Z,11.18
2022-09-16T04:21:11.666Z,6.67
2022-09-16T04:23:43.792Z,6.62
2022-09-16T04:26:15.819Z,7.10
2022-09-16T04:28:49.536Z,6.00
2022-09-16T04:31:22.129Z,5.70
2022-09-16T04:33:54.178Z,6.33
2022-09-16T04:36:26.213Z,5.92
2022-09-16T04:38:58.298Z,7.20
2022-09-16T04:41:30.365Z,6.30
2022-09-16T04:44:02.635Z,5.67
2022-09-16T04:46:35.144Z,6.87
2022-09-16T04:49:07.464Z,5.83
2022-09-16T04:51:39.962Z,6.87
2022-09-16T04:54:12.416Z,6.33
2022-09-16T04:56:44.453Z,7.33
2022-09-16T04:59:16.533Z,7.67
2022-09-16T05:01:48.660Z,5.58
2022-09-16T05:04:20.637Z,6.83
2022-09-16T05:06:53.039Z,5.85
2022-09-16T05:09:25.021Z,6.97
2022-09-16T05:11:57.233Z,6.42
2022-09-16T05:14:29.333Z,6.78
2022-09-16T05:17:01.842Z,7.28
2022-09-16T05:19:34.051Z,6.95
2022-09-16T05:22:08.142Z,6.17
2022-09-16T05:24:40.219Z,6.15
2022-09-16T05:27:12.169Z,6.05
2022-09-16T05:29:44.100Z,6.53
2022-09-16T05:32:16.179Z,6.37
2022-09-16T05:34:49.754Z,7.55
2022-09-16T05:37:21.726Z,7.35
2022-09-16T05:39:54.381Z,8.93
2022-09-16T05:42:26.883Z,6.33
2022-09-16T05:44:59.311Z,6.87
2022-09-16T05:47:32.791Z,7.03
2022-09-16T05:50:05.227Z,6.75
2022-09-16T05:52:37.458Z,6.80
2022-09-16T05:55:09.667Z,6.85
2022-09-16T05:57:41.680Z,6.58
2022-09-16T06:00:14.616Z,6.80
2022-09-16T06:02:48.448Z,6.25
2022-09-16T06:05:20.565Z,6.28
2022-09-16T06:07:54.114Z,7.08
2022-09-16T06:10:26.680Z,7.17
2022-09-16T06:12:58.760Z,6.62
2022-09-16T06:15:31.648Z,7.28
2022-09-16T06:18:06.577Z,6.67
2022-09-16T06:20:38.480Z,7.67
2022-09-16T06:23:10.497Z,6.97
2022-09-16T06:25:42.465Z,6.67
2022-09-16T06:28:15.080Z,7.33
2022-09-16T06:30:47.619Z,6.45
2022-09-16T06:33:19.688Z,6.70
2022-09-16T06:35:53.565Z,6.72
2022-09-16T06:38:25.987Z,7.75
2022-09-16T06:41:09.595Z,7.17
2022-09-16T06:43:41.866Z,7.58
2022-09-16T06:46:16.876Z,8.00
2022-09-16T06:48:51.349Z,8.60
2022-09-16T06:51:25.694Z,7.28
2022-09-16T06:54:03.781Z,8.55
2022-09-16T06:56:37.979Z,7.87
2022-09-16T06:59:13.044Z,7.75
2022-09-16T07:01:45.064Z,8.15
2022-09-16T07:04:17.151Z,7.70
2022-09-16T07:07:08.836Z,8.40
2022-09-16T07:09:24.811Z,7.92
2022-09-16T07:11:56.873Z,8.28
2022-09-16T07:14:32.117Z,8.50
2022-09-16T07:17:04.232Z,7.47
2022-09-16T07:19:36.822Z,7.45
2022-09-16T07:22:09.246Z,7.45
2022-09-16T07:24:41.510Z,7.87
2022-09-16T07:27:13.594Z,8.75
2022-09-16T07:29:46.086Z,8.15
2022-09-16T07:32:18.339Z,8.40
2022-09-16T07:34:50.632Z,9.38
2022-09-16T07:37:23.594Z,8.00
2022-09-16T07:39:55.858Z,8.53
2022-09-16T07:42:29.266Z,7.97
2022-09-16T07:45:01.423Z,11.90
2022-09-16T07:47:34.084Z,8.15
2022-09-16T07:50:07.232Z,14.33
2022-09-16T07:52:39.234Z,8.15
2022-09-16T07:55:12.962Z,9.18
2022-09-16T07:57:45.106Z,8.53
2022-09-16T08:00:17.315Z,8.00
2022-09-16T08:02:49.409Z,7.47
2022-09-16T08:05:21.532Z,7.47
2022-09-16T08:07:53.924Z,7.67
2022-09-16T08:10:29.198Z,9.70
2022-09-16T08:13:00.265Z,8.00
2022-09-16T08:15:32.389Z,8.15
2022-09-16T08:18:05.202Z,7.70
2022-09-16T08:20:38.581Z,7.53
2022-09-16T08:23:10.933Z,7.57
2022-09-16T08:25:42.997Z,8.63
2022-09-16T08:28:18.562Z,7.60
2022-09-16T08:30:53.210Z,8.20
2022-09-16T08:33:25.978Z,7.28
2022-09-16T08:36:10.201Z,7.45
2022-09-16T08:38:43.031Z,7.92
2022-09-16T08:41:36.452Z,8.63
2022-09-16T08:44:32.655Z,7.17
2022-09-16T08:47:08.150Z,7.33
2022-09-16T08:49:47.015Z,7.85
2022-09-16T08:52:34.276Z,7.35
2022-09-16T08:55:15.461Z,7.85
2022-09-16T08:57:56.279Z,7.75
2022-09-16T09:00:28.464Z,7.45
2022-09-16T09:03:31.978Z,6.65
2022-09-16T09:06:09.894Z,6.40
2022-09-16T09:08:44.986Z,7.30
2022-09-16T09:11:19.906Z,5.30
2022-09-16T09:14:24.009Z,5.90
2022-09-16T09:17:20.168Z,4.78
2022-09-16T09:20:01.264Z,5.58
2022-09-16T09:23:00.322Z,5.00
2022-09-16T09:25:53.620Z,5.40
2022-09-16T09:28:37.428Z,7.92
2022-09-16T09:31:21.451Z,4.87
2022-09-16T09:33:56.304Z,5.67
2022-09-16T09:36:31.452Z,5.55
2022-09-16T09:39:09.218Z,5.95
2022-09-16T09:41:53.032Z,6.78
2022-09-16T09:44:49.059Z,6.70
2022-09-16T09:47:36.321Z,6.17
2022-09-16T09:50:27.588Z,5.40
2022-09-16T09:53:14.417Z,6.08
2022-09-16T09:55:46.831Z,5.83
2022-09-16T09:58:40.504Z,6.37
2022-09-16T10:01:13.342Z,7.05
2022-09-16T10:03:45.502Z,5.55
2022-09-16T10:06:19.788Z,5.85
2022-09-16T10:08:54.660Z,9.43
2022-09-16T10:11:31.325Z,6.62
2022-09-16T10:14:05.884Z,5.78
2022-09-16T10:19:21.303Z,5.28
2022-09-16T10:21:59.210Z,5.33
2022-09-16T10:24:36.604Z,4.90
2022-09-16T10:27:26.999Z,4.53
2022-09-16T10:30:17.132Z,4.15
2022-09-16T10:33:01.585Z,4.55
2022-09-16T10:35:36.508Z,5.47
2022-09-16T10:38:14.757Z,5.10
2022-09-16T10:40:55.429Z,4.62
2022-09-16T10:43:29.873Z,5.00
2022-09-16T10:46:02.124Z,4.62
2022-09-16T10:48:36.530Z,4.42
2022-09-16T10:51:11.492Z,4.17
2022-09-16T10:53:46.847Z,5.53
2022-09-16T10:56:22.540Z,7.22
2022-09-16T10:59:06.729Z,5.08
2022-09-16T11:01:44.676Z,4.17
2022-09-16T11:04:34.871Z,5.03
2022-09-16T11:07:15.676Z,4.25
2022-09-16T11:09:56.446Z,4.00
2022-09-16T11:12:53.984Z,4.90
2022-09-16T11:15:44.063Z,4.05
2022-09-16T11:18:35.511Z,4.75
2022-09-16T11:21:35.983Z,4.25
2022-09-16T11:24:28.829Z,4.50
2022-09-16T11:27:31.076Z,4.80
2022-09-16T11:30:17.879Z,5.47
2022-09-16T11:33:07.755Z,5.58
2022-09-16T11:35:59.349Z,4.42
2022-09-16T11:38:50.790Z,4.60
2022-09-16T11:41:48.320Z,4.03
2022-09-16T11:44:47.073Z,3.87
2022-09-16T11:47:21.808Z,5.00
2022-09-16T11:50:08.660Z,3.87
2022-09-16T11:53:01.438Z,4.37
2022-09-16T11:55:41.086Z,5.05
2022-09-16T11:58:51.060Z,5.20
2022-09-16T12:01:42.766Z,4.50
2022-09-16T12:04:17.899Z,5.08
2022-09-16T12:06:53.647Z,5.22
2022-09-16T12:09:34.492Z,9.00
2022-09-16T12:12:12.173Z,5.12
2022-09-16T12:14:53.694Z,9.88
2022-09-16T12:17:28.545Z,5.10
2022-09-16T12:20:06.457Z,5.45
2022-09-16T12:22:47.304Z,7.58
2022-09-16T12:25:22.604Z,6.70
2022-09-16T12:28:00.362Z,5.67
2022-09-16T12:30:41.326Z,5.42
2022-09-16T12:33:19.833Z,5.87
2022-09-16T12:36:06.747Z,5.97
2022-09-16T12:38:40.211Z,7.17
2022-09-16T12:41:33.161Z,7.45
2022-09-16T12:44:36.835Z,7.80
2022-09-16T12:47:18.152Z,6.85
2022-09-16T12:50:05.241Z,7.90
2022-09-16T12:52:52.321Z,7.35
2022-09-16T12:55:33.264Z,6.60
2022-09-16T12:58:14.220Z,7.70
2022-09-16T13:01:16.670Z,6.67
2022-09-16T13:03:58.359Z,7.40
2022-09-16T13:06:33.768Z,7.45
2022-09-16T13:09:40.339Z,7.33
2022-09-16T13:12:39.174Z,7.80
2022-09-16T13:15:07.437Z,7.80
2022-09-16T13:17:41.688Z,7.10
2022-09-16T13:22:49.646Z,7.03
2022-09-16T13:25:36.658Z,6.25
2022-09-16T13:28:28.548Z,7.47
2022-09-16T13:31:18.768Z,7.50
2022-09-16T13:33:59.997Z,7.17
2022-09-16T13:36:34.123Z,8.98
2022-09-16T13:39:09.220Z,8.13
2022-09-16T13:41:48.152Z,7.35
2022-09-16T13:44:42.356Z,8.63
2022-09-16T13:47:22.901Z,8.38
2022-09-16T13:50:12.171Z,6.72
2022-09-16T13:52:47.231Z,7.50
2022-09-16T13:55:24.103Z,8.18
2022-09-16T13:58:32.646Z,8.63
2022-09-16T14:01:15.340Z,7.25
2022-09-16T14:04:23.123Z,8.25
2022-09-16T14:07:23.589Z,7.50
2022-09-16T14:10:16.909Z,8.00
2022-09-16T14:13:11.245Z,8.30
2022-09-16T14:15:46.957Z,9.15
2022-09-16T14:18:24.222Z,8.90
2022-09-16T14:21:02.407Z,8.20
2022-09-16T14:23:36.530Z,9.03
2022-09-16T14:26:15.342Z,8.50
2022-09-16T14:28:48.651Z,8.50
2022-09-16T14:31:27.042Z,8.55
2022-09-16T14:34:05.311Z,8.18
2022-09-16T14:36:44.517Z,7.70
2022-09-16T14:39:20.373Z,7.85
2022-09-16T14:41:56.046Z,6.70
2022-09-16T14:44:46.985Z,6.50
2022-09-16T14:47:39.709Z,7.50
2022-09-16T14:50:04.467Z,6.33
2022-09-16T14:52:37.953Z,7.17
2022-09-16T14:55:23.202Z,6.25
2022-09-16T14:57:57.725Z,5.72
2022-09-16T15:00:33.357Z,7.80
2022-09-16T15:03:20.205Z,5.60
2022-09-16T15:05:59.281Z,6.10
2022-09-16T15:08:47.333Z,7.47
2022-09-16T15:11:48.651Z,6.60
2022-09-16T15:14:14.749Z,7.22
2022-09-16T15:16:50.252Z,7.00
2022-09-16T15:19:31.257Z,6.80
2022-09-16T15:22:11.606Z,7.50
2022-09-16T15:24:46.133Z,6.80
2022-09-16T15:27:31.799Z,6.87
2022-09-16T15:30:06.047Z,6.65
2022-09-16T15:35:27.116Z,6.83
2022-09-16T15:37:59.993Z,5.95
2022-09-16T15:40:36.124Z,6.58
2022-09-16T15:43:23.597Z,6.50
2022-09-16T15:46:02.259Z,5.83
2022-09-16T15:48:38.412Z,6.37
2022-09-16T15:51:14.239Z,6.12
2022-09-16T15:53:50.539Z,6.22
2022-09-16T15:56:26.399Z,6.08
2022-09-16T15:59:13.824Z,6.47
2022-09-16T16:01:53.443Z,7.20
2022-09-16T16:04:36.472Z,6.72
2022-09-16T16:07:09.109Z,7.42
2022-09-16T16:09:44.616Z,7.03
2022-09-16T16:12:19.067Z,8.03
2022-09-16T16:14:51.951Z,8.00
2022-09-16T16:17:28.762Z,6.83
2022-09-16T16:20:03.509Z,7.87
2022-09-16T16:22:36.449Z,8.78
2022-09-16T16:25:10.264Z,9.18
2022-09-16T16:30:16.094Z,8.48
2022-09-16T16:32:50.848Z,8.78
2022-09-16T16:35:28.486Z,7.92
2022-09-16T16:38:00.844Z,9.08
2022-09-16T16:40:34.499Z,8.90
2022-09-16T16:43:07.075Z,8.83
2022-09-16T16:45:41.599Z,8.23
2022-09-16T16:48:20.565Z,7.20
2022-09-16T16:51:02.074Z,7.47
2022-09-16T16:53:35.886Z,8.40
2022-09-16T16:56:14.876Z,7.83
2022-09-16T16:58:47.516Z,7.33
2022-09-16T17:01:21.472Z,7.80
2022-09-16T17:03:53.917Z,7.10
2022-09-16T17:06:27.032Z,7.03
2022-09-16T17:09:00.241Z,6.80
2022-09-16T17:11:34.297Z,7.85
2022-09-16T17:14:08.980Z,7.67
2022-09-16T17:16:43.793Z,7.55
2022-09-16T17:19:18.899Z,6.92
2022-09-16T17:21:54.672Z,8.65
2022-09-16T17:24:27.688Z,6.90
2022-09-16T17:27:00.504Z,7.95
2022-09-16T17:29:33.675Z,7.75
2022-09-16T17:32:08.802Z,7.78
2022-09-16T17:34:44.617Z,8.20
2022-09-16T17:37:20.161Z,8.23
2022-09-16T17:39:54.771Z,7.95
2022-09-16T17:42:28.100Z,8.05
2022-09-16T17:45:03.414Z,7.50
2022-09-16T17:47:38.810Z,7.25
2022-09-16T17:50:13.018Z,7.50
2022-09-16T17:52:46.723Z,8.00
2022-09-16T17:55:19.377Z,8.18
2022-09-16T17:57:52.604Z,9.25
2022-09-16T18:00:25.488Z,8.35
2022-09-16T18:02:58.321Z,8.65
2022-09-16T18:05:33.585Z,7.87
2022-09-16T18:08:07.948Z,8.63
2022-09-16T18:13:12.598Z,8.48
2022-09-16T18:15:45.648Z,8.30
2022-09-16T18:18:18.458Z,9.00
2022-09-16T18:20:56.837Z,8.38
2022-09-16T18:23:29.054Z,8.65
2022-09-16T18:26:10.201Z,9.13
2022-09-16T18:29:08.600Z,8.98
2022-09-16T18:31:24.820Z,7.92
2022-09-16T18:33:57.928Z,8.18
2022-09-16T18:36:31.035Z,8.75
2022-09-16T18:39:11.230Z,7.78
2022-09-16T18:41:45.919Z,7.60
2022-09-16T18:44:26.006Z,8.17
2022-09-16T18:46:58.505Z,10.45
2022-09-16T18:49:31.790Z,8.50
2022-09-16T18:52:05.029Z,7.60
2022-09-16T18:54:38.085Z,8.50
2022-09-16T18:59:45.978Z,7.12
2022-09-16T19:02:18.188Z,8.25
2022-09-16T19:04:55.148Z,8.85
2022-09-16T19:07:28.248Z,8.58
2022-09-16T19:10:00.708Z,8.93
2022-09-16T19:12:38.449Z,9.25
2022-09-16T19:15:09.329Z,9.65
2022-09-16T19:17:42.604Z,9.20
2022-09-16T19:20:15.195Z,8.63
2022-09-16T19:22:48.030Z,8.23
2022-09-16T19:25:22.834Z,9.35
2022-09-16T19:27:55.137Z,9.65
2022-09-16T19:30:27.426Z,9.00
2022-09-16T19:33:01.265Z,10.25
2022-09-16T19:35:34.579Z,9.95
2022-09-16T19:38:07.348Z,10.32
2022-09-16T19:40:39.599Z,10.45
2022-09-16T19:43:12.445Z,10.85
2022-09-16T19:45:44.859Z,9.00
2022-09-16T19:48:18.033Z,9.95
2022-09-16T19:50:53.909Z,10.03
2022-09-16T19:53:25.919Z,9.95
2022-09-16T19:55:59.638Z,10.25
2022-09-16T19:58:33.444Z,10.23
2022-09-16T20:01:08.898Z,9.70
2022-09-16T20:03:44.287Z,10.13
2022-09-16T20:06:24.973Z,10.03
2022-09-16T20:08:59.896Z,9.73
2022-09-16T20:11:35.006Z,8.48
2022-09-16T20:14:09.626Z,7.08
2022-09-16T20:16:42.244Z,8.25
2022-09-16T20:19:16.235Z,9.00
2022-09-16T20:21:48.701Z,9.08
2022-09-16T20:24:23.692Z,8.90
2022-09-16T20:26:57.434Z,9.65
2022-09-16T20:29:30.931Z,8.48
2022-09-16T20:32:03.211Z,8.05
2022-09-16T20:34:37.409Z,8.53
2022-09-16T20:37:10.336Z,8.50
2022-09-16T20:39:44.977Z,9.08
2022-09-16T20:42:17.336Z,9.03
2022-09-16T20:44:49.780Z,7.60
2022-09-16T20:47:22.338Z,8.25
2022-09-16T20:49:54.482Z,8.33
2022-09-16T20:52:27.062Z,7.05
2022-09-16T20:55:02.690Z,7.45
2022-09-16T20:57:35.506Z,7.33
2022-09-16T21:00:08.314Z,7.97
2022-09-16T21:02:40.841Z,7.70
2022-09-16T21:05:13.423Z,7.37
2022-09-16T21:07:45.752Z,6.78
2022-09-16T21:10:18.375Z,7.40
2022-09-16T21:12:51.179Z,7.40
2022-09-16T21:15:24.934Z,7.87
2022-09-16T21:17:57.139Z,8.05
2022-09-16T21:20:31.011Z,8.80
2022-09-16T21:23:04.353Z,9.20
2022-09-16T21:25:36.644Z,8.65
2022-09-16T21:28:08.900Z,8.40
2022-09-16T21:30:41.076Z,8.45
2022-09-16T21:33:14.588Z,8.65
2022-09-16T21:35:54.126Z,9.83
2022-09-16T21:38:28.323Z,9.58
2022-09-16T21:41:02.988Z,8.90
2022-09-16T21:43:38.149Z,9.40
2022-09-16T21:46:14.099Z,8.30
2022-09-16T21:48:46.313Z,8.05
2022-09-16T21:51:20.270Z,6.55
2022-09-16T21:53:52.279Z,8.23
2022-09-16T21:56:24.896Z,7.67
2022-09-16T21:58:58.437Z,7.40
2022-09-16T22:01:31.746Z,7.70
2022-09-16T22:04:06.621Z,6.20
2022-09-16T22:06:38.484Z,6.75
2022-09-16T22:09:11.858Z,6.00
2022-09-16T22:11:44.394Z,5.58
2022-09-16T22:14:16.480Z,5.55
2022-09-16T22:16:48.405Z,6.22
2022-09-16T22:19:21.020Z,5.80
2022-09-16T22:21:53.093Z,5.67
2022-09-16T22:24:25.292Z,5.25
2022-09-16T22:26:57.478Z,4.78
2022-09-16T22:29:29.422Z,5.25
2022-09-16T22:32:03.034Z,5.25
2022-09-16T22:34:36.929Z,5.30
2022-09-16T22:37:10.691Z,5.78
2022-09-16T22:39:42.718Z,5.37
2022-09-16T22:42:14.767Z,5.92
2022-09-16T22:44:47.007Z,5.90
2022-09-16T22:47:19.275Z,5.70
2022-09-16T22:49:51.290Z,6.62
2022-09-16T22:52:23.561Z,5.30
2022-09-16T22:54:55.722Z,5.55
2022-09-16T22:57:27.710Z,6.08
2022-09-16T23:00:00.036Z,6.17
2022-09-16T23:02:33.456Z,5.93
2022-09-16T23:05:07.517Z,6.92
2022-09-16T23:07:39.942Z,5.78
2022-09-16T23:10:12.147Z,4.97
2022-09-16T23:12:44.306Z,5.85
2022-09-16T23:15:16.329Z,5.17
2022-09-16T23:17:48.437Z,5.70
2022-09-16T23:20:20.508Z,6.00
2022-09-16T23:22:52.531Z,5.92
2022-09-16T23:25:24.781Z,6.55
2022-09-16T23:27:56.672Z,6.60
2022-09-16T23:30:28.632Z,6.10
2022-09-16T23:33:00.611Z,6.50
2022-09-16T23:35:32.602Z,6.00
2022-09-16T23:38:04.578Z,6.25
2022-09-16T23:40:38.323Z,6.08
2022-09-16T23:43:10.306Z,5.37
2022-09-16T23:45:42.945Z,5.92
2022-09-16T23:48:15.312Z,6.03
2022-09-16T23:50:47.265Z,5.28
2022-09-16T23:53:19.318Z,5.47
2022-09-16T23:55:51.286Z,5.53
2022-09-16T23:58:23.435Z,5.80
